sensor_id;sensor_type;location;lat;lon;timestamp;pressure;altitude;pressure_sealevel;temperature;humidity
50434;BME280;36361;38.954;-9.002;2023-10-09T00:00:24;101169.38;;;23.85;47.91
50434;BME280;36361;38.954;-9.002;2023-10-09T00:01:51;101174.31;;;23.93;47.69
50434;BME280;36361;38.954;-9.002;2023-10-09T00:02:52;101169.38;;;23.85;48.20
50434;BME280;36361;38.954;-9.002;2023-10-09T00:03:54;101174.69;;;24.10;47.54
50434;BME280;36361;38.954;-9.002;2023-10-09T00:04:55;101172.41;;;24.18;47.44
50434;BME280;36361;38.954;-9.002;2023-10-09T00:05:57;101170.22;;;24.15;47.83
50434;BME280;36361;38.954;-9.002;2023-10-09T00:06:58;101170.88;;;24.06;47.68
50434;BME280;36361;38.954;-9.002;2023-10-09T00:08:00;101170.91;;;24.01;48.00
50434;BME280;36361;38.954;-9.002;2023-10-09T00:09:07;101166.72;;;23.75;48.35
50434;BME280;36361;38.954;-9.002;2023-10-09T00:10:34;101167.50;;;23.80;48.39
50434;BME280;36361;38.954;-9.002;2023-10-09T00:11:53;101167.63;;;23.94;48.31
50434;BME280;36361;38.954;-9.002;2023-10-09T00:12:57;101167.09;;;23.92;48.53
50434;BME280;36361;38.954;-9.002;2023-10-09T00:13:58;101167.63;;;23.94;48.59
50434;BME280;36361;38.954;-9.002;2023-10-09T00:14:59;101166.72;;;23.75;48.04
50434;BME280;36361;38.954;-9.002;2023-10-09T00:16:10;101164.03;;;23.65;48.25
50434;BME280;36361;38.954;-9.002;2023-10-09T00:17:16;101168.44;;;23.66;47.89
50434;BME280;36361;38.954;-9.002;2023-10-09T00:18:17;101162.06;;;23.65;48.28
50434;BME280;36361;38.954;-9.002;2023-10-09T00:19:23;101158.75;;;23.63;48.01
50434;BME280;36361;38.954;-9.002;2023-10-09T00:20:36;101165.78;;;23.84;47.64
50434;BME280;36361;38.954;-9.002;2023-10-09T00:21:49;101175.75;;;23.91;47.62
50434;BME280;36361;38.954;-9.002;2023-10-09T00:22:50;101160.75;;;24.16;47.00
50434;BME280;36361;38.954;-9.002;2023-10-09T00:23:55;101165.53;;;24.10;47.25
50434;BME280;36361;38.954;-9.002;2023-10-09T00:24:59;101164.47;;;24.06;47.93
50434;BME280;36361;38.954;-9.002;2023-10-09T00:26:12;101162.19;;;23.84;48.42
50434;BME280;36361;38.954;-9.002;2023-10-09T00:27:25;101165.22;;;23.88;48.15
50434;BME280;36361;38.954;-9.002;2023-10-09T00:28:31;101161.25;;;23.94;48.09
50434;BME280;36361;38.954;-9.002;2023-10-09T00:29:34;101163.56;;;23.87;48.49
50434;BME280;36361;38.954;-9.002;2023-10-09T00:30:41;101161.16;;;23.75;48.57
50434;BME280;36361;38.954;-9.002;2023-10-09T00:31:42;101155.38;;;23.66;48.96
50434;BME280;36361;38.954;-9.002;2023-10-09T00:32:50;101163.16;;;23.69;48.90
50434;BME280;36361;38.954;-9.002;2023-10-09T00:34:01;101161.22;;;23.70;48.72
50434;BME280;36361;38.954;-9.002;2023-10-09T00:35:04;101164.66;;;23.51;48.71
50434;BME280;36361;38.954;-9.002;2023-10-09T00:36:23;101162.22;;;23.45;48.91
50434;BME280;36361;38.954;-9.002;2023-10-09T00:37:28;101166.28;;;23.63;48.51
50434;BME280;36361;38.954;-9.002;2023-10-09T00:38:35;101154.56;;;23.66;48.07
50434;BME280;36361;38.954;-9.002;2023-10-09T00:39:36;101165.59;;;23.76;48.02
50434;BME280;36361;38.954;-9.002;2023-10-09T00:40:37;101162.81;;;23.76;48.07
50434;BME280;36361;38.954;-9.002;2023-10-09T00:41:45;101159.47;;;23.79;48.19
50434;BME280;36361;38.954;-9.002;2023-10-09T00:42:46;101160.66;;;23.68;48.23
50434;BME280;36361;38.954;-9.002;2023-10-09T00:43:47;101159.56;;;23.69;48.51
50434;BME280;36361;38.954;-9.002;2023-10-09T00:44:50;101158.00;;;23.52;48.94
50434;BME280;36361;38.954;-9.002;2023-10-09T00:45:51;101160.00;;;23.81;48.50
50434;BME280;36361;38.954;-9.002;2023-10-09T00:46:51;101158.72;;;23.97;48.21
50434;BME280;36361;38.954;-9.002;2023-10-09T00:47:52;101150.69;;;23.96;48.03
50434;BME280;36361;38.954;-9.002;2023-10-09T00:48:59;101155.59;;;23.75;48.41
50434;BME280;36361;38.954;-9.002;2023-10-09T00:50:06;101156.81;;;23.59;48.60
50434;BME280;36361;38.954;-9.002;2023-10-09T00:51:17;101160.00;;;23.81;48.62
50434;BME280;36361;38.954;-9.002;2023-10-09T00:52:19;101157.53;;;24.03;47.48
50434;BME280;36361;38.954;-9.002;2023-10-09T00:53:23;101159.34;;;23.89;47.81
50434;BME280;36361;38.954;-9.002;2023-10-09T00:54:31;101162.25;;;23.79;48.49
50434;BME280;36361;38.954;-9.002;2023-10-09T00:55:41;101160.94;;;23.95;48.00
50434;BME280;36361;38.954;-9.002;2023-10-09T00:56:46;101159.56;;;23.98;48.22
50434;BME280;36361;38.954;-9.002;2023-10-09T00:57:58;101155.09;;;23.68;48.50
50434;BME280;36361;38.954;-9.002;2023-10-09T00:59:00;101161.53;;;23.58;49.04
50434;BME280;36361;38.954;-9.002;2023-10-09T01:00:09;101156.56;;;23.55;48.98
50434;BME280;36361;38.954;-9.002;2023-10-09T01:01:25;101161.66;;;23.82;48.32
50434;BME280;36361;38.954;-9.002;2023-10-09T01:02:34;101157.81;;;23.78;48.22
50434;BME280;36361;38.954;-9.002;2023-10-09T01:03:42;101159.28;;;23.94;48.31
50434;BME280;36361;38.954;-9.002;2023-10-09T01:04:46;101157.75;;;23.83;48.56
50434;BME280;36361;38.954;-9.002;2023-10-09T01:05:51;101156.13;;;23.77;48.44
50434;BME280;36361;38.954;-9.002;2023-10-09T01:07:12;101151.00;;;23.55;48.53
50434;BME280;36361;38.954;-9.002;2023-10-09T01:08:13;101151.00;;;23.55;48.94
50434;BME280;36361;38.954;-9.002;2023-10-09T01:09:17;101156.78;;;23.69;48.46
50434;BME280;36361;38.954;-9.002;2023-10-09T01:10:17;101149.31;;;23.64;48.71
50434;BME280;36361;38.954;-9.002;2023-10-09T01:11:19;101149.53;;;23.34;49.40
50434;BME280;36361;38.954;-9.002;2023-10-09T01:12:21;101150.28;;;23.44;49.69
50434;BME280;36361;38.954;-9.002;2023-10-09T01:13:25;101150.88;;;23.41;48.93
50434;BME280;36361;38.954;-9.002;2023-10-09T01:14:39;101155.16;;;23.23;49.71
50434;BME280;36361;38.954;-9.002;2023-10-09T01:15:43;101153.34;;;23.43;49.40
50434;BME280;36361;38.954;-9.002;2023-10-09T01:16:45;101149.19;;;23.40;49.04
50434;BME280;36361;38.954;-9.002;2023-10-09T01:17:48;101153.56;;;23.51;49.24
50434;BME280;36361;38.954;-9.002;2023-10-09T01:18:53;101153.06;;;23.39;49.62
50434;BME280;36361;38.954;-9.002;2023-10-09T01:19:57;101154.81;;;23.30;49.24
50434;BME280;36361;38.954;-9.002;2023-10-09T01:21:04;101153.75;;;23.26;49.75
50434;BME280;36361;38.954;-9.002;2023-10-09T01:22:05;101153.66;;;23.36;49.48
50434;BME280;36361;38.954;-9.002;2023-10-09T01:23:13;101159.50;;;23.35;49.90
50434;BME280;36361;38.954;-9.002;2023-10-09T01:24:14;101155.69;;;23.25;50.25
50434;BME280;36361;38.954;-9.002;2023-10-09T01:25:16;101158.09;;;23.37;49.83
50434;BME280;36361;38.954;-9.002;2023-10-09T01:26:17;101158.47;;;23.65;48.87
50434;BME280;36361;38.954;-9.002;2023-10-09T01:27:19;101153.78;;;23.55;49.21
50434;BME280;36361;38.954;-9.002;2023-10-09T01:28:23;101151.69;;;23.42;49.38
50434;BME280;36361;38.954;-9.002;2023-10-09T01:29:25;101151.41;;;23.38;49.89
50434;BME280;36361;38.954;-9.002;2023-10-09T01:30:29;101151.25;;;23.59;49.41
50434;BME280;36361;38.954;-9.002;2023-10-09T01:31:33;101155.69;;;23.65;48.90
50434;BME280;36361;38.954;-9.002;2023-10-09T01:32:37;101151.94;;;23.45;49.18
50434;BME280;36361;38.954;-9.002;2023-10-09T01:33:38;101146.25;;;23.26;49.78
50434;BME280;36361;38.954;-9.002;2023-10-09T01:34:39;101150.13;;;23.25;50.07
50434;BME280;36361;38.954;-9.002;2023-10-09T01:35:43;101155.69;;;23.25;49.82
50434;BME280;36361;38.954;-9.002;2023-10-09T01:36:53;101155.47;;;23.17;49.24
50434;BME280;36361;38.954;-9.002;2023-10-09T01:38:00;101153.53;;;23.17;49.70
50434;BME280;36361;38.954;-9.002;2023-10-09T01:39:01;101150.34;;;23.34;49.56
50434;BME280;36361;38.954;-9.002;2023-10-09T01:40:22;101158.16;;;23.32;49.28
50434;BME280;36361;38.954;-9.002;2023-10-09T01:41:27;101150.06;;;23.36;48.74
50434;BME280;36361;38.954;-9.002;2023-10-09T01:42:28;101148.34;;;23.40;48.64
50434;BME280;36361;38.954;-9.002;2023-10-09T01:43:35;101144.28;;;23.32;48.73
50434;BME280;36361;38.954;-9.002;2023-10-09T01:44:36;101151.41;;;23.38;48.81
50434;BME280;36361;38.954;-9.002;2023-10-09T01:45:44;101143.72;;;23.30;48.73
50434;BME280;36361;38.954;-9.002;2023-10-09T01:46:47;101151.19;;;23.35;49.17
50434;BME280;36361;38.954;-9.002;2023-10-09T01:47:47;101148.44;;;23.30;48.92
50434;BME280;36361;38.954;-9.002;2023-10-09T01:48:57;101144.28;;;23.32;49.07
50434;BME280;36361;38.954;-9.002;2023-10-09T01:49:59;101144.28;;;23.27;49.12
50434;BME280;36361;38.954;-9.002;2023-10-09T01:51:05;101143.75;;;23.25;49.26
50434;BME280;36361;38.954;-9.002;2023-10-09T01:52:06;101148.91;;;23.42;48.66
50434;BME280;36361;38.954;-9.002;2023-10-09T01:53:13;101146.19;;;23.32;48.92
50434;BME280;36361;38.954;-9.002;2023-10-09T01:54:22;101140.59;;;23.42;48.65
50434;BME280;36361;38.954;-9.002;2023-10-09T01:55:37;101146.88;;;23.52;48.43
50434;BME280;36361;38.954;-9.002;2023-10-09T01:56:40;101141.66;;;23.46;48.31
50434;BME280;36361;38.954;-9.002;2023-10-09T01:57:46;101143.22;;;23.57;48.28
50434;BME280;36361;38.954;-9.002;2023-10-09T01:58:48;101146.63;;;23.49;48.40
50434;BME280;36361;38.954;-9.002;2023-10-09T01:59:52;101148.53;;;23.53;48.48
50434;BME280;36361;38.954;-9.002;2023-10-09T02:00:55;101138.66;;;23.37;49.04
50434;BME280;36361;38.954;-9.002;2023-10-09T02:02:05;101134.13;;;23.46;48.76
50434;BME280;36361;38.954;-9.002;2023-10-09T02:03:17;101136.13;;;23.41;48.99
50434;BME280;36361;38.954;-9.002;2023-10-09T02:04:18;101133.44;;;23.31;48.98
50434;BME280;36361;38.954;-9.002;2023-10-09T02:05:21;101131.53;;;23.26;48.68
50434;BME280;36361;38.954;-9.002;2023-10-09T02:06:22;101134.81;;;23.33;48.67
50434;BME280;36361;38.954;-9.002;2023-10-09T02:07:26;101133.22;;;23.56;47.89
50434;BME280;36361;38.954;-9.002;2023-10-09T02:08:42;101134.34;;;23.55;47.71
50434;BME280;36361;38.954;-9.002;2023-10-09T02:09:49;101134.59;;;23.59;47.79
50434;BME280;36361;38.954;-9.002;2023-10-09T02:10:50;101126.91;;;23.50;48.49
50434;BME280;36361;38.954;-9.002;2023-10-09T02:11:55;101134.59;;;23.59;48.03
50434;BME280;36361;38.954;-9.002;2023-10-09T02:12:57;101127.91;;;23.65;47.72
50434;BME280;36361;38.954;-9.002;2023-10-09T02:13:58;101132.31;;;23.71;47.42
50434;BME280;36361;38.954;-9.002;2023-10-09T02:15:01;101127.38;;;23.63;48.23
50434;BME280;36361;38.954;-9.002;2023-10-09T02:16:09;101132.69;;;23.59;47.94
50434;BME280;36361;38.954;-9.002;2023-10-09T02:17:16;101134.59;;;23.64;47.69
50434;BME280;36361;38.954;-9.002;2023-10-09T02:18:21;101127.75;;;23.46;48.19
50434;BME280;36361;38.954;-9.002;2023-10-09T02:19:22;101131.91;;;23.48;48.41
50434;BME280;36361;38.954;-9.002;2023-10-09T02:20:31;101134.44;;;23.45;48.45
50434;BME280;36361;38.954;-9.002;2023-10-09T02:21:32;101126.44;;;23.38;48.12
50434;BME280;36361;38.954;-9.002;2023-10-09T02:22:42;101124.63;;;23.18;48.79
50434;BME280;36361;38.954;-9.002;2023-10-09T02:23:42;101123.22;;;23.21;48.44
50434;BME280;36361;38.954;-9.002;2023-10-09T02:24:46;101127.59;;;23.32;48.35
50434;BME280;36361;38.954;-9.002;2023-10-09T02:25:49;101120.16;;;23.22;48.96
50434;BME280;36361;38.954;-9.002;2023-10-09T02:26:53;101124.56;;;23.28;48.29
50434;BME280;36361;38.954;-9.002;2023-10-09T02:27:54;101140.59;;;23.42;48.37
50434;BME280;36361;38.954;-9.002;2023-10-09T02:28:59;101131.53;;;23.26;48.30
50434;BME280;36361;38.954;-9.002;2023-10-09T02:30:04;101127.22;;;23.44;48.58
50434;BME280;36361;38.954;-9.002;2023-10-09T02:31:28;101122.09;;;23.22;48.52
50434;BME280;36361;38.954;-9.002;2023-10-09T02:32:35;101128.69;;;23.31;48.96
50434;BME280;36361;38.954;-9.002;2023-10-09T02:33:36;101125.81;;;23.46;48.32
50434;BME280;36361;38.954;-9.002;2023-10-09T02:34:40;101124.16;;;23.45;48.33
50434;BME280;36361;38.954;-9.002;2023-10-09T02:35:41;101116.00;;;23.20;48.60
50434;BME280;36361;38.954;-9.002;2023-10-09T02:36:44;101126.63;;;23.13;48.98
50434;BME280;36361;38.954;-9.002;2023-10-09T02:37:57;101128.13;;;23.34;48.26
50434;BME280;36361;38.954;-9.002;2023-10-09T02:38:58;101131.44;;;23.36;48.09
50434;BME280;36361;38.954;-9.002;2023-10-09T02:39:59;101130.94;;;23.29;48.63
50434;BME280;36361;38.954;-9.002;2023-10-09T02:41:08;101130.13;;;22.89;48.75
50434;BME280;36361;38.954;-9.002;2023-10-09T02:42:12;101136.81;;;22.78;49.39
50434;BME280;36361;38.954;-9.002;2023-10-09T02:43:13;101133.47;;;22.86;48.71
50434;BME280;36361;38.954;-9.002;2023-10-09T02:44:18;101137.34;;;22.85;49.67
50434;BME280;36361;38.954;-9.002;2023-10-09T02:45:24;101148.41;;;22.95;49.50
50434;BME280;36361;38.954;-9.002;2023-10-09T02:46:26;101152.72;;;23.12;48.70
50434;BME280;36361;38.954;-9.002;2023-10-09T02:47:30;101147.38;;;23.25;50.94
50434;BME280;36361;38.954;-9.002;2023-10-09T02:48:38;101152.59;;;23.32;53.85
50434;BME280;36361;38.954;-9.002;2023-10-09T02:49:43;101147.38;;;22.71;60.32
50434;BME280;36361;38.954;-9.002;2023-10-09T02:50:44;101145.69;;;22.75;64.46
50434;BME280;36361;38.954;-9.002;2023-10-09T02:51:45;101140.34;;;22.29;69.67
50434;BME280;36361;38.954;-9.002;2023-10-09T02:52:53;101142.88;;;22.10;74.00
50434;BME280;36361;38.954;-9.002;2023-10-09T02:54:03;101138.69;;;22.33;73.17
50434;BME280;36361;38.954;-9.002;2023-10-09T02:55:27;101143.06;;;22.45;66.14
50434;BME280;36361;38.954;-9.002;2023-10-09T02:56:28;101144.13;;;22.49;62.76
50434;BME280;36361;38.954;-9.002;2023-10-09T02:57:41;101144.66;;;22.61;60.93
50434;BME280;36361;38.954;-9.002;2023-10-09T02:58:44;101154.66;;;22.57;62.85
50434;BME280;36361;38.954;-9.002;2023-10-09T02:59:44;101153.66;;;22.27;58.91
50434;BME280;36361;38.954;-9.002;2023-10-09T03:00:45;101148.69;;;22.24;57.67
50434;BME280;36361;38.954;-9.002;2023-10-09T03:01:47;101154.81;;;22.06;56.91
50434;BME280;36361;38.954;-9.002;2023-10-09T03:02:51;101144.84;;;22.10;56.87
50434;BME280;36361;38.954;-9.002;2023-10-09T03:03:52;101140.09;;;22.26;55.81
50434;BME280;36361;38.954;-9.002;2023-10-09T03:04:55;101135.88;;;22.38;55.96
50434;BME280;36361;38.954;-9.002;2023-10-09T03:05:56;101139.16;;;22.46;55.95
50434;BME280;36361;38.954;-9.002;2023-10-09T03:06:58;101149.13;;;22.52;56.10
50434;BME280;36361;38.954;-9.002;2023-10-09T03:07:59;101149.09;;;22.57;54.83
50434;BME280;36361;38.954;-9.002;2023-10-09T03:09:00;101146.66;;;22.50;54.66
50434;BME280;36361;38.954;-9.002;2023-10-09T03:10:01;101134.19;;;22.42;53.56
50434;BME280;36361;38.954;-9.002;2023-10-09T03:11:02;101133.41;;;22.22;53.86
50434;BME280;36361;38.954;-9.002;2023-10-09T03:12:06;101138.09;;;22.36;53.18
50434;BME280;36361;38.954;-9.002;2023-10-09T03:13:10;101142.47;;;22.53;52.62
50434;BME280;36361;38.954;-9.002;2023-10-09T03:14:11;101141.59;;;22.57;52.14
50434;BME280;36361;38.954;-9.002;2023-10-09T03:15:11;101137.22;;;22.51;52.05
50434;BME280;36361;38.954;-9.002;2023-10-09T03:16:13;101140.38;;;22.24;52.76
50434;BME280;36361;38.954;-9.002;2023-10-09T03:17:20;101146.38;;;22.52;52.62
50434;BME280;36361;38.954;-9.002;2023-10-09T03:18:20;101140.72;;;22.67;52.11
50434;BME280;36361;38.954;-9.002;2023-10-09T03:19:22;101143.50;;;22.72;51.70
50434;BME280;36361;38.954;-9.002;2023-10-09T03:20:22;101142.91;;;22.80;51.76
50434;BME280;36361;38.954;-9.002;2023-10-09T03:21:23;101137.94;;;22.77;51.67
50434;BME280;36361;38.954;-9.002;2023-10-09T03:22:23;101145.19;;;22.63;52.07
50434;BME280;36361;38.954;-9.002;2023-10-09T03:23:24;101141.88;;;22.61;52.39
50434;BME280;36361;38.954;-9.002;2023-10-09T03:24:26;101140.88;;;22.36;52.58
50434;BME280;36361;38.954;-9.002;2023-10-09T03:25:31;101140.34;;;22.29;52.96
50434;BME280;36361;38.954;-9.002;2023-10-09T03:26:32;101135.94;;;22.23;53.60
50434;BME280;36361;38.954;-9.002;2023-10-09T03:27:33;101142.00;;;22.30;53.59
50434;BME280;36361;38.954;-9.002;2023-10-09T03:28:34;101139.16;;;22.51;52.60
50434;BME280;36361;38.954;-9.002;2023-10-09T03:29:36;101136.16;;;22.42;52.60
50434;BME280;36361;38.954;-9.002;2023-10-09T03:30:37;101138.63;;;22.38;53.27
50434;BME280;36361;38.954;-9.002;2023-10-09T03:31:40;101138.59;;;22.49;52.49
50434;BME280;36361;38.954;-9.002;2023-10-09T03:32:46;101136.69;;;22.44;53.07
50434;BME280;36361;38.954;-9.002;2023-10-09T03:33:51;101134.75;;;22.45;52.73
50434;BME280;36361;38.954;-9.002;2023-10-09T03:35:10;101136.72;;;22.29;52.83
50434;BME280;36361;38.954;-9.002;2023-10-09T03:36:17;101142.47;;;22.48;52.91
50434;BME280;36361;38.954;-9.002;2023-10-09T03:37:18;101145.28;;;22.42;52.70
50434;BME280;36361;38.954;-9.002;2023-10-09T03:38:37;101147.44;;;22.61;52.11
50434;BME280;36361;38.954;-9.002;2023-10-09T03:39:38;101145.75;;;22.65;52.10
50434;BME280;36361;38.954;-9.002;2023-10-09T03:40:45;101141.31;;;22.64;52.75
50434;BME280;36361;38.954;-9.002;2023-10-09T03:41:48;101140.72;;;22.72;52.73
50434;BME280;36361;38.954;-9.002;2023-10-09T03:42:51;101141.06;;;22.60;53.33
50434;BME280;36361;38.954;-9.002;2023-10-09T03:43:52;101148.06;;;22.42;53.90
50434;BME280;36361;38.954;-9.002;2023-10-09T03:44:54;101156.88;;;22.55;53.19
50434;BME280;36361;38.954;-9.002;2023-10-09T03:45:57;101142.97;;;22.70;52.30
50434;BME280;36361;38.954;-9.002;2023-10-09T03:47:00;101139.59;;;22.73;52.33
50434;BME280;36361;38.954;-9.002;2023-10-09T03:48:02;101148.56;;;22.55;52.78
50434;BME280;36361;38.954;-9.002;2023-10-09T03:49:11;101150.22;;;22.56;53.21
50434;BME280;36361;38.954;-9.002;2023-10-09T03:50:16;101143.06;;;22.39;54.02
50434;BME280;36361;38.954;-9.002;2023-10-09T03:51:36;101156.09;;;22.44;53.42
50434;BME280;36361;38.954;-9.002;2023-10-09T03:52:37;101155.78;;;22.56;52.93
50434;BME280;36361;38.954;-9.002;2023-10-09T03:53:39;101149.63;;;22.69;52.78
50434;BME280;36361;38.954;-9.002;2023-10-09T03:54:39;101159.00;;;22.78;52.57
50434;BME280;36361;38.954;-9.002;2023-10-09T03:55:42;101159.13;;;22.53;53.21
50434;BME280;36361;38.954;-9.002;2023-10-09T03:56:42;101146.94;;;22.43;52.97
50434;BME280;36361;38.954;-9.002;2023-10-09T03:57:43;101155.53;;;22.52;52.89
50434;BME280;36361;38.954;-9.002;2023-10-09T03:58:49;101152.50;;;22.43;53.49
50434;BME280;36361;38.954;-9.002;2023-10-09T03:59:50;101148.06;;;22.37;53.92
50434;BME280;36361;38.954;-9.002;2023-10-09T04:00:52;101151.88;;;22.62;53.04
50434;BME280;36361;38.954;-9.002;2023-10-09T04:01:52;101150.69;;;22.73;52.66
50434;BME280;36361;38.954;-9.002;2023-10-09T04:02:55;101150.44;;;22.69;52.69
50434;BME280;36361;38.954;-9.002;2023-10-09T04:03:56;101155.44;;;22.67;52.55
50434;BME280;36361;38.954;-9.002;2023-10-09T04:05:00;101151.81;;;22.67;52.70
50434;BME280;36361;38.954;-9.002;2023-10-09T04:06:01;101151.81;;;22.77;52.62
50434;BME280;36361;38.954;-9.002;2023-10-09T04:07:02;101146.78;;;22.84;52.20
50434;BME280;36361;38.954;-9.002;2023-10-09T04:08:03;101157.97;;;22.64;52.73
50434;BME280;36361;38.954;-9.002;2023-10-09T04:09:12;101151.56;;;22.63;52.92
50434;BME280;36361;38.954;-9.002;2023-10-09T04:10:20;101156.34;;;22.53;53.09
50434;BME280;36361;38.954;-9.002;2023-10-09T04:11:51;101153.06;;;22.40;53.39
50434;BME280;36361;38.954;-9.002;2023-10-09T04:13:11;101162.97;;;22.62;53.00
50434;BME280;36361;38.954;-9.002;2023-10-09T04:14:17;101156.94;;;22.50;53.32
50434;BME280;36361;38.954;-9.002;2023-10-09T04:15:33;101154.78;;;22.31;53.69
50434;BME280;36361;38.954;-9.002;2023-10-09T04:16:36;101167.19;;;22.39;53.85
50434;BME280;36361;38.954;-9.002;2023-10-09T04:17:51;101154.16;;;22.45;53.69
50434;BME280;36361;38.954;-9.002;2023-10-09T04:18:55;101154.22;;;22.24;54.45
50434;BME280;36361;38.954;-9.002;2023-10-09T04:20:00;101159.94;;;22.48;53.71
50434;BME280;36361;38.954;-9.002;2023-10-09T04:21:19;101151.91;;;22.47;53.47
50434;BME280;36361;38.954;-9.002;2023-10-09T04:22:20;101156.34;;;22.48;53.13
50434;BME280;36361;38.954;-9.002;2023-10-09T04:23:27;101154.72;;;22.41;53.78
50434;BME280;36361;38.954;-9.002;2023-10-09T04:24:54;101150.38;;;22.15;54.59
50434;BME280;36361;38.954;-9.002;2023-10-09T04:25:54;101149.00;;;22.07;54.98
50434;BME280;36361;38.954;-9.002;2023-10-09T04:26:57;101160.09;;;22.07;55.09
50434;BME280;36361;38.954;-9.002;2023-10-09T04:27:59;101147.28;;;22.27;54.71
50434;BME280;36361;38.954;-9.002;2023-10-09T04:29:10;101155.34;;;22.23;54.52
50434;BME280;36361;38.954;-9.002;2023-10-09T04:30:18;101153.69;;;22.12;54.62
50434;BME280;36361;38.954;-9.002;2023-10-09T04:31:19;101150.91;;;22.12;54.86
50434;BME280;36361;38.954;-9.002;2023-10-09T04:32:22;101154.25;;;22.04;55.62
50434;BME280;36361;38.954;-9.002;2023-10-09T04:33:25;101150.06;;;22.22;54.93
50434;BME280;36361;38.954;-9.002;2023-10-09T04:34:41;101150.91;;;22.02;55.22
50434;BME280;36361;38.954;-9.002;2023-10-09T04:35:49;101153.97;;;22.10;55.35
50434;BME280;36361;38.954;-9.002;2023-10-09T04:37:09;101150.09;;;22.11;55.36
50434;BME280;36361;38.954;-9.002;2023-10-09T04:38:16;101144.28;;;22.08;55.44
50434;BME280;36361;38.954;-9.002;2023-10-09T04:39:17;101148.72;;;22.14;55.14
50434;BME280;36361;38.954;-9.002;2023-10-09T04:40:38;101146.22;;;22.07;55.91
50434;BME280;36361;38.954;-9.002;2023-10-09T04:41:48;101152.03;;;22.06;55.76
50434;BME280;36361;38.954;-9.002;2023-10-09T04:42:49;101152.53;;;22.33;54.81
50434;BME280;36361;38.954;-9.002;2023-10-09T04:43:59;101150.84;;;22.42;54.22
50434;BME280;36361;38.954;-9.002;2023-10-09T04:45:18;101141.97;;;22.40;54.03
50434;BME280;36361;38.954;-9.002;2023-10-09T04:46:26;101135.81;;;22.59;53.73
50434;BME280;36361;38.954;-9.002;2023-10-09T04:47:34;101148.59;;;22.50;53.91
50434;BME280;36361;38.954;-9.002;2023-10-09T04:48:58;101150.78;;;22.53;53.57
50434;BME280;36361;38.954;-9.002;2023-10-09T04:50:16;101145.00;;;22.44;53.47
50434;BME280;36361;38.954;-9.002;2023-10-09T04:51:17;101138.59;;;22.49;53.37
50434;BME280;36361;38.954;-9.002;2023-10-09T04:52:23;101141.66;;;22.47;53.54
50434;BME280;36361;38.954;-9.002;2023-10-09T04:53:30;101139.75;;;22.42;53.82
50434;BME280;36361;38.954;-9.002;2023-10-09T04:54:39;101135.56;;;22.40;54.37
50434;BME280;36361;38.954;-9.002;2023-10-09T04:56:57;101139.28;;;22.10;55.08
50434;BME280;36361;38.954;-9.002;2023-10-09T04:57:58;101138.75;;;22.08;55.14
50434;BME280;36361;38.954;-9.002;2023-10-09T04:59:08;101140.41;;;22.09;55.09
50434;BME280;36361;38.954;-9.002;2023-10-09T05:00:16;101135.91;;;22.33;54.23
50434;BME280;36361;38.954;-9.002;2023-10-09T05:01:26;101130.88;;;22.40;53.58
50434;BME280;36361;38.954;-9.002;2023-10-09T05:02:36;101133.38;;;22.42;53.55
50434;BME280;36361;38.954;-9.002;2023-10-09T05:03:39;101136.44;;;22.30;53.78
50434;BME280;36361;38.954;-9.002;2023-10-09T05:04:39;101136.22;;;22.17;54.09
50434;BME280;36361;38.954;-9.002;2023-10-09T05:05:41;101131.47;;;22.27;53.60
50434;BME280;36361;38.954;-9.002;2023-10-09T05:06:42;101139.69;;;22.53;52.92
50434;BME280;36361;38.954;-9.002;2023-10-09T05:07:50;101140.25;;;22.55;53.05
50434;BME280;36361;38.954;-9.002;2023-10-09T05:08:57;101133.88;;;22.49;52.82
50434;BME280;36361;38.954;-9.002;2023-10-09T05:10:08;101130.69;;;22.76;52.29
50434;BME280;36361;38.954;-9.002;2023-10-09T05:11:16;101133.75;;;22.80;52.01
50434;BME280;36361;38.954;-9.002;2023-10-09T05:12:35;101142.56;;;22.92;51.79
50434;BME280;36361;38.954;-9.002;2023-10-09T05:13:41;101142.63;;;22.87;52.04
50434;BME280;36361;38.954;-9.002;2023-10-09T05:14:43;101143.59;;;22.52;52.84
50434;BME280;36361;38.954;-9.002;2023-10-09T05:15:46;101154.69;;;22.52;52.67
50434;BME280;36361;38.954;-9.002;2023-10-09T05:16:55;101150.75;;;22.63;53.08
50434;BME280;36361;38.954;-9.002;2023-10-09T05:18:01;101151.38;;;22.50;53.32
50434;BME280;36361;38.954;-9.002;2023-10-09T05:19:09;101150.31;;;22.40;53.24
50434;BME280;36361;38.954;-9.002;2023-10-09T05:20:29;101155.19;;;22.64;52.70
50434;BME280;36361;38.954;-9.002;2023-10-09T05:21:49;101155.22;;;22.54;52.76
50434;BME280;36361;38.954;-9.002;2023-10-09T05:22:53;101155.22;;;22.49;52.93
50434;BME280;36361;38.954;-9.002;2023-10-09T05:24:15;101149.38;;;22.55;52.72
50434;BME280;36361;38.954;-9.002;2023-10-09T05:25:16;101153.03;;;22.51;52.84
50434;BME280;36361;38.954;-9.002;2023-10-09T05:26:36;101151.09;;;22.51;52.78
50434;BME280;36361;38.954;-9.002;2023-10-09T05:27:49;101147.81;;;22.29;53.34
50434;BME280;36361;38.954;-9.002;2023-10-09T05:28:54;101149.09;;;22.57;52.65
50434;BME280;36361;38.954;-9.002;2023-10-09T05:29:58;101148.59;;;22.45;53.16
50434;BME280;36361;38.954;-9.002;2023-10-09T05:31:42;101153.81;;;22.61;52.60
50434;BME280;36361;38.954;-9.002;2023-10-09T05:32:56;101155.22;;;22.59;52.47
50434;BME280;36361;38.954;-9.002;2023-10-09T05:34:04;101156.06;;;22.49;52.85
50434;BME280;36361;38.954;-9.002;2023-10-09T05:35:07;101154.78;;;22.26;53.30
50434;BME280;36361;38.954;-9.002;2023-10-09T05:36:15;101158.59;;;22.51;53.10
50434;BME280;36361;38.954;-9.002;2023-10-09T05:37:28;101160.53;;;22.40;53.47
50434;BME280;36361;38.954;-9.002;2023-10-09T05:38:43;101155.84;;;22.30;53.84
50434;BME280;36361;38.954;-9.002;2023-10-09T05:40:05;101154.22;;;22.19;54.61
50434;BME280;36361;38.954;-9.002;2023-10-09T05:41:18;101153.91;;;22.36;53.97
50434;BME280;36361;38.954;-9.002;2023-10-09T05:42:37;101163.00;;;22.47;54.12